Time;durP1;ratioP1;P1;durP2;ratioP2;P2;SDS_P1;SDS_P2;PMS_P1;PMS_P2;Temp;Humidity;BMP_temperature;BMP_pressure;BME280_temperature;BME280_humidity;BME280_pressure;Samples;Min_cycle;Max_cycle;Signal;HPM_P1;HPM_P2
2022/07/29 00:00:48;;;;;;;2.00;1.30;;;24.40;47.70;;;;;;5120911;27;20170;-88
2022/07/29 00:03:14;;;;;;;2.07;1.40;;;24.40;47.70;;;;;;5121614;27;20189;-88
2022/07/29 00:05:41;;;;;;;2.13;1.43;;;24.40;47.60;;;;;;5121069;27;20201;-88
2022/07/29 00:08:08;;;;;;;3.10;1.50;;;24.40;47.60;;;;;;5121040;27;20173;-88
2022/07/29 00:10:34;;;;;;;1.83;1.43;;;24.30;47.60;;;;;;5120100;27;20165;-88
2022/07/29 00:13:01;;;;;;;2.60;1.57;;;24.40;47.70;;;;;;5120799;27;20508;-88
2022/07/29 00:15:27;;;;;;;1.77;1.43;;;24.40;47.70;;;;;;5120528;27;20213;-88
2022/07/29 00:17:53;;;;;;;1.63;1.40;;;24.40;47.70;;;;;;5118851;27;20273;-88
2022/07/29 00:20:19;;;;;;;2.80;1.60;;;24.40;47.70;;;;;;5120116;27;20257;-88
2022/07/29 00:22:45;;;;;;;4.53;1.87;;;24.40;47.70;;;;;;5119472;27;20178;-88
2022/07/29 00:25:12;;;;;;;3.27;1.93;;;24.30;47.70;;;;;;5121389;27;20202;-88
2022/07/29 00:27:39;;;;;;;3.47;1.63;;;24.20;47.60;;;;;;5121483;27;20336;-88
2022/07/29 00:30:05;;;;;;;3.40;1.70;;;24.30;47.80;;;;;;5122330;27;20538;-88
2022/07/29 00:32:31;;;;;;;1.63;1.50;;;24.20;47.70;;;;;;5118828;27;20639;-88
2022/07/29 00:37:42;;;;;;;3.17;1.53;;;24.10;47.80;;;;;;5139487;27;20180;-88
2022/07/29 00:40:08;;;;;;;2.17;1.50;;;24.10;47.80;;;;;;5121654;27;20173;-88
2022/07/29 00:42:48;;;;;;;1.93;1.40;;;24.20;47.90;;;;;;5139139;27;20566;-88
2022/07/29 00:45:15;;;;;;;4.87;2.03;;;24.10;47.80;;;;;;5120558;27;20215;-88
2022/07/29 00:47:41;;;;;;;4.30;1.53;;;24.10;47.80;;;;;;5120928;27;20510;-88
2022/07/29 00:50:08;;;;;;;2.50;1.70;;;24.10;47.90;;;;;;5120407;27;20275;-88
2022/07/29 00:52:36;;;;;;;3.43;1.40;;;24.20;47.90;;;;;;5119093;27;20174;-88
2022/07/29 00:55:04;;;;;;;4.47;1.83;;;24.20;47.90;;;;;;5119443;27;20170;-89
2022/07/29 00:57:30;;;;;;;3.37;1.57;;;24.20;47.90;;;;;;5119191;27;20212;-88
2022/07/29 00:59:56;;;;;;;3.00;1.80;;;24.10;47.90;;;;;;5119723;27;20552;-88
2022/07/29 01:02:22;;;;;;;2.23;1.40;;;24.20;48.10;;;;;;5119324;27;20165;-88
2022/07/29 01:04:48;;;;;;;4.37;1.67;;;24.10;48.00;;;;;;5138265;27;20197;-88
2022/07/29 01:07:14;;;;;;;2.73;1.67;;;24.10;48.00;;;;;;5120101;27;20176;-88
2022/07/29 01:09:42;;;;;;;3.30;1.67;;;24.10;48.00;;;;;;5119201;27;20170;-88
2022/07/29 01:12:08;;;;;;;3.57;1.53;;;24.10;48.00;;;;;;5120152;27;20275;-88
2022/07/29 01:14:35;;;;;;;3.13;1.60;;;24.00;48.00;;;;;;5137480;27;20177;-88
2022/07/29 01:17:16;;;;;;;3.80;1.60;;;24.00;48.10;;;;;;5120263;27;20170;-88
2022/07/29 01:19:47;;;;;;;1.60;1.43;;;24.00;48.10;;;;;;5120055;27;20561;-88
2022/07/29 01:22:36;;;;;;;3.10;1.57;;;24.00;48.10;;;;;;5119970;27;20185;-88
2022/07/29 01:25:30;;;;;;;3.20;1.43;;;24.00;48.10;;;;;;5120213;27;20352;-88
2022/07/29 01:28:21;;;;;;;2.90;1.60;;;24.00;48.10;;;;;;5119620;27;20179;-88
2022/07/29 01:30:51;;;;;;;2.33;1.60;;;24.00;48.20;;;;;;5120244;27;20177;-88
2022/07/29 01:36:10;;;;;;;2.03;1.60;;;24.00;48.10;;;;;;5137932;27;20176;-89
2022/07/29 01:38:39;;;;;;;3.27;1.60;;;23.90;48.30;;;;;;5119987;27;20169;-88
2022/07/29 01:41:17;;;;;;;2.37;1.50;;;23.90;48.20;;;;;;5119605;27;20169;-88
2022/07/29 01:43:59;;;;;;;3.73;1.57;;;24.00;48.30;;;;;;5120210;27;20173;-88
2022/07/29 01:46:33;;;;;;;1.63;1.40;;;23.90;48.30;;;;;;5118242;27;20220;-88
2022/07/29 01:49:08;;;;;;;1.90;1.40;;;23.90;48.30;;;;;;5119676;27;20172;-88
2022/07/29 01:51:38;;;;;;;2.17;1.50;;;23.90;48.20;;;;;;5119554;27;20241;-88
2022/07/29 01:54:05;;;;;;;2.63;1.50;;;23.90;48.20;;;;;;5119773;27;20177;-88
2022/07/29 01:56:34;;;;;;;1.80;1.40;;;23.90;48.30;;;;;;5119132;27;20272;-88
2022/07/29 01:59:04;;;;;;;2.17;1.33;;;23.90;48.40;;;;;;5119726;27;20210;-88
2022/07/29 02:01:32;;;;;;;2.53;1.40;;;23.90;48.40;;;;;;5119285;27;20468;-88
2022/07/29 02:04:01;;;;;;;2.83;1.60;;;23.90;48.40;;;;;;5120007;27;20530;-88
2022/07/29 02:06:29;;;;;;;2.07;1.60;;;23.80;48.40;;;;;;5119248;27;20243;-88
2022/07/29 02:08:56;;;;;;;4.57;1.57;;;23.80;48.40;;;;;;5119241;27;20193;-88
2022/07/29 02:11:21;;;;;;;3.33;1.70;;;23.80;48.50;;;;;;5119377;27;20169;-88
2022/07/29 02:13:49;;;;;;;3.47;1.80;;;23.70;48.50;;;;;;5119116;27;20199;-88
2022/07/29 02:16:16;;;;;;;2.13;1.47;;;23.70;48.50;;;;;;5137168;27;20168;-88
2022/07/29 02:18:45;;;;;;;1.93;1.40;;;23.60;48.60;;;;;;5119056;27;20188;-88
2022/07/29 02:21:12;;;;;;;1.80;1.37;;;23.70;48.70;;;;;;5119124;27;20183;-88
2022/07/29 02:23:39;;;;;;;2.23;1.50;;;23.70;48.70;;;;;;5118885;28;20189;-88
2022/07/29 02:26:07;;;;;;;2.03;1.40;;;23.70;48.70;;;;;;5119101;27;20312;-88
2022/07/29 02:28:33;;;;;;;3.87;1.80;;;23.70;48.60;;;;;;5118128;27;20259;-88
2022/07/29 02:31:02;;;;;;;2.40;1.40;;;23.70;48.70;;;;;;5119817;27;20539;-88
2022/07/29 02:33:30;;;;;;;2.23;1.30;;;23.70;48.60;;;;;;5119090;28;20177;-88
2022/07/29 02:35:58;;;;;;;3.90;1.50;;;23.70;48.60;;;;;;5119435;28;20654;-88
2022/07/29 02:41:16;;;;;;;3.80;1.70;;;23.60;48.80;;;;;;5136323;28;20531;-88
2022/07/29 02:43:44;;;;;;;2.97;1.53;;;23.50;48.90;;;;;;5136329;28;20172;-88
2022/07/29 02:46:18;;;;;;;7.70;2.07;;;23.50;49.00;;;;;;5136662;28;20200;-88
2022/07/29 02:48:51;;;;;;;;;;;23.40;49.00;;;;;;5119394;28;20054;-88
2022/07/29 02:51:28;;;;;;;;;;;23.40;49.10;;;;;;5119847;28;20257;-88
2022/07/29 02:53:56;;;;;;;;;;;23.40;49.20;;;;;;5119858;28;20280;-88
2022/07/29 02:56:24;;;;;;;;;;;23.30;49.30;;;;;;5119651;28;19994;-88
2022/07/29 02:58:54;;;;;;;;;;;23.30;49.40;;;;;;5119400;28;19911;-88
2022/07/29 03:01:24;;;;;;;;;;;23.30;49.50;;;;;;5119426;28;19960;-88
2022/07/29 03:03:51;;;;;;;;;;;23.20;49.40;;;;;;5119218;28;20184;-88
2022/07/29 03:06:17;;;;;;;;;;;23.30;49.50;;;;;;5119688;28;19907;-88
2022/07/29 03:08:44;;;;;;;;;;;23.20;49.40;;;;;;5119487;28;20035;-88
2022/07/29 03:11:11;;;;;;;;;;;23.30;49.50;;;;;;5119310;28;19911;-88
2022/07/29 03:13:36;;;;;;;;;;;23.30;49.50;;;;;;5136072;28;19911;-88
2022/07/29 03:16:03;;;;;;;;;;;23.30;49.40;;;;;;5119123;28;19907;-88
2022/07/29 03:18:29;;;;;;;;;;;23.30;49.40;;;;;;5118946;28;20010;-88
2022/07/29 03:20:55;;;;;;;;;;;23.30;49.50;;;;;;5136714;28;20002;-88
2022/07/29 03:23:22;;;;;;;;;;;23.30;49.40;;;;;;5118790;28;19903;-88
2022/07/29 03:25:48;;;;;;;;;;;23.30;49.40;;;;;;5120071;27;19914;-88
2022/07/29 03:28:14;;;;;;;;;;;23.30;49.30;;;;;;5122878;27;19907;-88
2022/07/29 03:30:41;;;;;;;;;;;23.40;49.40;;;;;;5122430;27;20193;-88
2022/07/29 03:33:07;;;;;;;;;;;23.40;49.80;;;;;;5122923;27;19904;-88
2022/07/29 03:35:32;;;;;;;;;;;23.40;49.40;;;;;;5140368;27;19925;-88
2022/07/29 03:37:58;;;;;;;;;;;23.40;49.40;;;;;;5122498;27;19903;-88
2022/07/29 03:40:30;;;;;;;;;;;23.40;49.50;;;;;;5122088;27;20264;-88
2022/07/29 03:42:56;;;;;;;;;;;23.40;49.50;;;;;;5140142;27;19911;-88
2022/07/29 03:45:22;;;;;;;;;;;23.40;49.50;;;;;;5139913;27;19971;-88
2022/07/29 03:47:50;;;;;;;;;;;23.40;49.50;;;;;;5121941;27;20253;-88
2022/07/29 03:50:16;;;;;;;;;;;23.40;49.50;;;;;;5122021;27;19968;-88
2022/07/29 03:52:42;;;;;;;;;;;23.40;49.50;;;;;;5122281;27;19951;-88
2022/07/29 03:55:08;;;;;;;;;;;23.40;49.50;;;;;;5121657;27;19942;-88
2022/07/29 03:57:34;;;;;;;;;;;23.40;49.60;;;;;;5122158;27;19930;-87
2022/07/29 04:00:01;;;;;;;;;;;23.40;49.80;;;;;;5121524;27;19903;-88
2022/07/29 04:02:27;;;;;;;;;;;23.30;49.90;;;;;;5121751;27;19907;-88
2022/07/29 04:04:52;;;;;;;;;;;23.30;49.90;;;;;;5121113;27;19913;-88
2022/07/29 04:07:18;;;;;;;;;;;23.30;49.80;;;;;;5120647;27;20230;-88
2022/07/29 04:09:44;;;;;;;;;;;23.30;49.70;;;;;;5121073;27;19975;-88
2022/07/29 04:12:09;;;;;;;;;;;23.30;49.80;;;;;;5120987;27;20222;-88
2022/07/29 04:14:35;;;;;;;;;;;23.30;49.90;;;;;;5120589;27;19903;-88
2022/07/29 04:17:02;;;;;;;;;;;23.30;50.00;;;;;;5120547;27;20302;-88
2022/07/29 04:19:27;;;;;;;;;;;23.30;49.90;;;;;;5120354;27;19919;-88
2022/07/29 04:21:53;;;;;;;;;;;23.30;49.90;;;;;;5121146;27;19990;-88
2022/07/29 04:24:18;;;;;;;;;;;23.30;49.90;;;;;;5120619;27;19903;-88
2022/07/29 04:26:45;;;;;;;;;;;23.30;50.00;;;;;;5119561;27;19908;-88
2022/07/29 04:29:11;;;;;;;;;;;23.20;50.00;;;;;;5138333;27;19904;-88
2022/07/29 04:31:37;;;;;;;;;;;23.20;49.90;;;;;;5120200;27;20071;-88
2022/07/29 04:34:03;;;;;;;;;;;23.20;50.00;;;;;;5137883;27;19915;-88
2022/07/29 04:36:29;;;;;;;;;;;23.20;50.00;;;;;;5120113;27;19903;-88
2022/07/29 04:38:54;;;;;;;;;;;23.20;50.00;;;;;;5119706;27;20200;-88
2022/07/29 04:41:20;;;;;;;;;;;23.20;50.00;;;;;;5120519;27;20184;-88
2022/07/29 04:43:46;;;;;;;;;;;23.20;50.10;;;;;;5138406;27;19956;-88
2022/07/29 04:46:11;;;;;;;;;;;23.20;50.10;;;;;;5120688;27;20238;-88
2022/07/29 04:48:37;;;;;;;;;;;23.20;50.10;;;;;;5119429;27;19914;-89
2022/07/29 04:51:03;;;;;;;;;;;23.20;50.40;;;;;;5120211;27;19903;-88
2022/07/29 04:53:28;;;;;;;;;;;23.20;50.60;;;;;;5119713;27;20006;-89
2022/07/29 04:55:54;;;;;;;;;;;23.20;51.00;;;;;;5138468;27;19907;-89
2022/07/29 04:58:19;;;;;;;;;;;23.10;51.10;;;;;;5138540;27;19911;-89
2022/07/29 05:00:45;;;;;;;;;;;23.10;51.10;;;;;;5119323;27;19911;-89
2022/07/29 05:03:11;;;;;;;;;;;23.10;51.50;;;;;;5120550;27;19925;-89
2022/07/29 05:05:36;;;;;;;;;;;23.10;51.10;;;;;;5120328;27;19963;-89
2022/07/29 05:08:03;;;;;;;;;;;23.10;50.90;;;;;;5118821;27;20177;-89
2022/07/29 05:10:29;;;;;;;;;;;23.10;51.10;;;;;;5119513;27;19914;-88
2022/07/29 05:12:54;;;;;;;;;;;23.10;51.00;;;;;;5117881;27;19911;-89
2022/07/29 05:15:20;;;;;;;;;;;23.20;51.10;;;;;;5119819;27;19903;-89
2022/07/29 05:17:45;;;;;;;;;;;23.20;51.20;;;;;;5118957;27;19914;-89
2022/07/29 05:20:11;;;;;;;;;;;23.20;51.30;;;;;;5119534;27;19903;-89
2022/07/29 05:22:37;;;;;;;;;;;23.20;51.20;;;;;;5119254;27;19904;-89
2022/07/29 05:25:03;;;;;;;;;;;23.20;51.40;;;;;;5118779;27;20002;-89
2022/07/29 05:27:28;;;;;;;;;;;23.20;51.20;;;;;;5136250;27;19930;-89
2022/07/29 05:29:54;;;;;;;;;;;23.20;51.40;;;;;;5118736;27;20172;-89
2022/07/29 05:32:20;;;;;;;;;;;23.20;51.00;;;;;;5117865;27;19999;-89
2022/07/29 05:34:45;;;;;;;;;;;23.30;51.30;;;;;;5116817;27;19910;-89
2022/07/29 05:37:13;;;;;;;;;;;23.10;52.60;;;;;;5134914;27;19903;-89
2022/07/29 05:39:38;;;;;;;;;;;23.10;53.00;;;;;;5117294;27;20005;-89
2022/07/29 05:42:08;;;;;;;;;;;23.00;52.90;;;;;;5115850;27;20075;-89
2022/07/29 05:44:36;;;;;;;;;;;23.00;52.40;;;;;;5115632;27;19998;-90
2022/07/29 05:47:01;;;;;;;;;;;23.10;52.80;;;;;;5115788;27;19984;-89
2022/07/29 05:49:27;;;;;;;;;;;23.00;53.00;;;;;;5114803;27;19939;-89
2022/07/29 05:51:53;;;;;;;;;;;22.80;53.70;;;;;;5116105;27;19911;-89
2022/07/29 05:54:18;;;;;;;;;;;22.40;55.80;;;;;;5115565;27;19907;-89
2022/07/29 05:56:44;;;;;;;;;;;22.20;56.40;;;;;;5117327;27;19993;-90
2022/07/29 05:59:09;;;;;;;;;;;22.30;56.40;;;;;;5117475;27;19907;-89
2022/07/29 06:01:39;;;;;;;;;;;22.30;56.70;;;;;;5115980;27;19903;-89
2022/07/29 06:04:05;;;;;;;;;;;22.20;57.70;;;;;;5117127;27;19945;-89
2022/07/29 06:06:30;;;;;;;;;;;22.30;60.00;;;;;;5117548;27;19957;-89
2022/07/29 06:08:56;;;;;;;;;;;22.10;59.40;;;;;;5116662;27;19939;-89
2022/07/29 06:11:22;;;;;;;;;;;21.70;66.20;;;;;;5116441;27;19917;-89
2022/07/29 06:13:47;;;;;;;;;;;21.40;64.40;;;;;;5116836;27;19965;-89
2022/07/29 06:16:13;;;;;;;;;;;21.70;63.30;;;;;;5116680;27;19904;-89
2022/07/29 06:18:39;;;;;;;;;;;21.70;64.30;;;;;;5116618;27;19911;-89
2022/07/29 06:21:08;;;;;;;;;;;21.50;67.30;;;;;;5134363;27;20239;-89
2022/07/29 06:23:34;;;;;;;;;;;21.60;66.40;;;;;;5116971;28;19903;-89
2022/07/29 06:26:00;;;;;;;;;;;21.60;66.70;;;;;;5135219;27;19907;-89
2022/07/29 06:28:26;;;;;;;;;;;21.50;68.60;;;;;;5117023;27;19903;-89
2022/07/29 06:30:51;;;;;;;;;;;21.50;67.20;;;;;;5133810;27;19903;-89
2022/07/29 06:33:18;;;;;;;;;;;21.90;64.70;;;;;;5116951;28;19903;-89
2022/07/29 06:35:47;;;;;;;;;;;22.20;62.70;;;;;;5116312;28;19988;-89
2022/07/29 06:38:13;;;;;;;;;;;22.40;63.30;;;;;;5116206;28;19904;-89
2022/07/29 06:41:00;;;;;;;;;;;22.30;61.80;;;;;;5115814;28;20244;-89
2022/07/29 06:43:33;;;;;;;;;;;22.50;59.60;;;;;;5115751;28;20262;-89
2022/07/29 06:46:03;;;;;;;;;;;22.70;59.70;;;;;;5116605;28;19918;-89
2022/07/29 06:48:29;;;;;;;;;;;22.80;58.30;;;;;;5115494;28;20288;-89
2022/07/29 06:50:54;;;;;;;;;;;23.00;57.70;;;;;;5115949;28;20069;-89
2022/07/29 06:53:20;;;;;;;;;;;23.20;57.50;;;;;;5115936;28;19903;-89
2022/07/29 06:55:46;;;;;;;;;;;23.10;58.10;;;;;;5115538;28;19926;-89
2022/07/29 06:58:13;;;;;;;;;;;23.20;56.80;;;;;;5115625;28;20320;-89
2022/07/29 07:00:39;;;;;;;;;;;23.40;57.10;;;;;;5115547;27;19911;-89
2022/07/29 07:03:05;;;;;;;;;;;23.50;55.80;;;;;;5119653;27;20056;-89
2022/07/29 07:05:32;;;;;;;;;;;23.60;56.70;;;;;;5119280;27;20193;-89
2022/07/29 07:07:57;;;;;;;;;;;23.70;57.00;;;;;;5119477;27;19904;-89
2022/07/29 07:10:23;;;;;;;;;;;23.50;56.60;;;;;;5119524;27;19968;-89
2022/07/29 07:12:48;;;;;;;;;;;23.70;57.00;;;;;;5118866;27;19926;-89
2022/07/29 07:15:14;;;;;;;;;;;23.90;55.30;;;;;;5118760;27;19907;-89
2022/07/29 07:17:40;;;;;;;;;;;24.20;55.90;;;;;;5119123;27;19907;-89
2022/07/29 07:20:06;;;;;;;;;;;24.30;54.40;;;;;;5137102;27;19903;-89
2022/07/29 07:22:31;;;;;;;;;;;24.30;54.40;;;;;;5118914;27;19942;-89
2022/07/29 07:24:57;;;;;;;;;;;24.20;54.90;;;;;;5119155;27;20150;-89
2022/07/29 07:27:23;;;;;;;;;;;24.20;54.90;;;;;;5119202;27;19904;-89
2022/07/29 07:29:48;;;;;;;;;;;24.30;54.40;;;;;;5119150;27;19904;-89
2022/07/29 07:32:16;;;;;;;;;;;24.30;53.80;;;;;;5135729;27;20237;-89
2022/07/29 07:34:42;;;;;;;;;;;24.40;54.00;;;;;;5117422;27;20022;-89
2022/07/29 07:37:08;;;;;;;;;;;24.40;54.40;;;;;;5135312;27;19903;-89
2022/07/29 07:39:33;;;;;;;;;;;24.40;54.00;;;;;;5117467;27;20225;-89
2022/07/29 07:41:59;;;;;;;;;;;24.40;53.70;;;;;;5117799;27;19911;-89
2022/07/29 07:44:25;;;;;;;;;;;24.40;54.90;;;;;;5118302;27;19903;-89
2022/07/29 07:46:51;;;;;;;;;;;24.30;53.70;;;;;;5116276;27;19904;-89
2022/07/29 07:49:16;;;;;;;;;;;24.40;53.60;;;;;;5117171;27;19904;-89
2022/07/29 07:51:42;;;;;;;;;;;24.40;53.40;;;;;;5117641;27;19904;-89
2022/07/29 07:54:08;;;;;;;;;;;24.50;53.00;;;;;;5116302;27;19904;-89
2022/07/29 07:56:33;;;;;;;;;;;24.60;53.10;;;;;;5118357;27;19904;-89
2022/07/29 07:58:59;;;;;;;;;;;24.60;53.10;;;;;;5117158;27;19950;-89
2022/07/29 08:01:25;;;;;;;;;;;24.70;52.80;;;;;;5117581;27;20150;-89
2022/07/29 08:03:50;;;;;;;;;;;24.70;52.80;;;;;;5133494;27;19911;-89
2022/07/29 08:06:16;;;;;;;;;;;24.80;52.70;;;;;;5116848;27;19918;-89
2022/07/29 08:08:41;;;;;;;;;;;24.90;52.30;;;;;;5117222;27;19903;-89
2022/07/29 08:11:07;;;;;;;;;;;24.90;52.50;;;;;;5116925;27;19903;-89
2022/07/29 08:13:33;;;;;;;;;;;25.00;52.40;;;;;;5117370;27;19915;-89
2022/07/29 08:16:00;;;;;;;;;;;25.10;51.90;;;;;;5117247;27;19903;-89
2022/07/29 08:18:26;;;;;;;;;;;25.20;51.70;;;;;;5116002;27;19926;-89
2022/07/29 08:20:52;;;;;;;;;;;25.40;51.50;;;;;;5116056;27;19903;-89
2022/07/29 08:23:18;;;;;;;;;;;25.50;51.10;;;;;;5114545;27;19911;-89
2022/07/29 08:25:44;;;;;;;;;;;25.50;51.40;;;;;;5115614;27;20150;-89
2022/07/29 08:28:10;;;;;;;;;;;25.70;50.90;;;;;;5116317;27;19903;-89
2022/07/29 08:30:35;;;;;;;;;;;26.10;50.40;;;;;;5116239;27;19903;-89
2022/07/29 08:33:01;;;;;;;;;;;26.20;50.00;;;;;;5116142;27;20054;-89
2022/07/29 08:35:27;;;;;;;;;;;26.20;50.00;;;;;;5115439;27;20257;-89
2022/07/29 08:37:53;;;;;;;;;;;26.20;49.90;;;;;;5116099;27;19962;-89
2022/07/29 08:40:20;;;;;;;;;;;26.10;50.00;;;;;;5115087;27;19907;-89
2022/07/29 08:42:46;;;;;;;;;;;25.90;50.10;;;;;;5116276;27;20284;-88
2022/07/29 08:45:12;;;;;;;;;;;25.80;50.30;;;;;;5114855;27;19917;-88
2022/07/29 08:47:39;;;;;;;;;;;25.60;50.50;;;;;;5114735;27;19967;-89
2022/07/29 08:50:05;;;;;;;;;;;25.40;50.90;;;;;;5116596;27;19935;-89
2022/07/29 08:52:33;;;;;;;;;;;25.40;51.10;;;;;;5115984;27;19903;-89
2022/07/29 08:54:59;;;;;;;;;;;25.30;50.90;;;;;;5116614;27;19964;-89
2022/07/29 08:57:25;;;;;;;;;;;25.20;51.30;;;;;;5116394;27;19907;-89
2022/07/29 08:59:52;;;;;;;;;;;25.20;51.60;;;;;;5115563;27;20291;-89
2022/07/29 09:02:21;;;;;;;;;;;25.10;51.60;;;;;;5113967;27;19903;-89
2022/07/29 09:04:47;;;;;;;;;;;25.10;51.50;;;;;;5115079;27;20001;-89
2022/07/29 09:07:17;;;;;;;;;;;25.10;51.50;;;;;;5133183;27;19994;-89
2022/07/29 09:09:43;;;;;;;;;;;25.10;51.60;;;;;;5115086;27;19903;-89
2022/07/29 09:12:12;;;;;;;;;;;25.10;51.90;;;;;;5114593;27;19910;-89
2022/07/29 09:14:38;;;;;;;;;;;25.10;51.80;;;;;;5114467;27;20348;-89
2022/07/29 09:17:04;;;;;;;;;;;25.10;52.30;;;;;;5114369;27;19958;-89
2022/07/29 09:19:34;;;;;;;;;;;25.10;51.80;;;;;;5116448;27;19950;-89
2022/07/29 09:22:01;;;;;;;;;;;25.10;51.70;;;;;;5133099;27;19986;-89
2022/07/29 09:24:40;;;;;;;;;;;25.20;51.70;;;;;;5114999;27;19935;-89
2022/07/29 09:27:28;;;;;;;;;;;25.20;51.70;;;;;;5115566;27;19976;-88
2022/07/29 09:30:00;;;;;;;;;;;25.30;52.30;;;;;;5115027;27;20119;-89
2022/07/29 09:32:26;;;;;;;;;;;25.20;51.60;;;;;;5133207;27;20426;-89
2022/07/29 09:35:12;;;;;;;;;;;25.20;51.40;;;;;;5114519;27;19903;-89
2022/07/29 09:37:38;;;;;;;;;;;25.20;51.40;;;;;;5096449;27;19907;-89
2022/07/29 09:40:11;;;;;;;;;;;25.10;51.70;;;;;;5134087;27;19998;-89
2022/07/29 09:42:37;;;;;;;;;;;25.10;51.90;;;;;;5114410;27;20047;-89
2022/07/29 09:45:03;;;;;;;;;;;25.10;51.90;;;;;;5113649;27;20253;-89
2022/07/29 09:47:57;;;;;;;;;;;25.10;51.90;;;;;;5114969;27;19976;-89
2022/07/29 09:50:25;;;;;;;;;;;25.10;51.60;;;;;;5110666;27;20499;-89
2022/07/29 09:52:51;;;;;;;;;;;25.10;51.90;;;;;;5115496;27;19911;-89
2022/07/29 09:55:17;;;;;;;;;;;25.10;51.80;;;;;;5113836;27;19953;-89
2022/07/29 09:57:44;;;;;;;;;;;25.10;52.20;;;;;;5113688;27;19989;-89
2022/07/29 10:00:14;;;;;;;;;;;25.10;51.80;;;;;;5113976;27;19983;-89
2022/07/29 10:02:41;;;;;;;;;;;25.10;51.70;;;;;;5112701;27;19911;-89
2022/07/29 10:05:16;;;;;;;;;;;25.00;51.90;;;;;;5132049;27;19907;-89
2022/07/29 10:07:49;;;;;;;;;;;25.00;51.90;;;;;;5114462;27;19942;-89
2022/07/29 10:10:20;;;;;;;;;;;25.00;52.10;;;;;;5131590;27;19914;-88
2022/07/29 10:12:50;;;;;;;;;;;25.00;52.20;;;;;;5132761;27;19949;-89
2022/07/29 10:15:16;;;;;;;;;;;25.00;52.40;;;;;;5113754;27;19903;-89
2022/07/29 10:17:42;;;;;;;;;;;25.00;52.50;;;;;;5113332;28;19941;-89
2022/07/29 10:20:08;;;;;;;;;;;24.90;52.10;;;;;;5114298;27;20286;-89
2022/07/29 10:22:34;;;;;;;;;;;24.90;52.40;;;;;;5113081;27;19907;-89
2022/07/29 10:24:59;;;;;;;;;;;24.90;52.60;;;;;;5113475;28;19911;-89
2022/07/29 10:27:25;;;;;;;;;;;24.90;52.20;;;;;;5113177;28;19907;-89
2022/07/29 10:29:50;;;;;;;;;;;24.90;52.60;;;;;;5113051;28;19987;-89
2022/07/29 10:32:31;;;;;;;;;;;25.00;52.50;;;;;;5132301;27;20319;-88
2022/07/29 10:35:19;;;;;;;;;;;25.00;52.20;;;;;;5112652;27;19958;-88
2022/07/29 10:37:48;;;;;;;;;;;25.00;52.10;;;;;;5112690;28;19903;-89
2022/07/29 10:43:15;;;;;;;;;;;25.10;52.00;;;;;;5130236;28;20239;-89
2022/07/29 10:45:40;;;;;;;;;;;25.10;51.90;;;;;;5130440;28;20296;-89
2022/07/29 10:48:06;;;;;;;;;;;25.10;51.90;;;;;;5131318;28;19933;-89
2022/07/29 10:50:52;;;;;;;;;;;25.10;51.80;;;;;;5112618;28;20280;-89
2022/07/29 10:53:17;;;;;;;;;;;25.10;51.80;;;;;;5112659;28;19903;-89
2022/07/29 10:55:46;;;;;;;;;;;25.10;51.80;;;;;;5113238;28;20196;-89
2022/07/29 10:58:13;;;;;;;;;;;25.10;52.10;;;;;;5113505;28;19964;-88
2022/07/29 11:00:38;;;;;;;;;;;25.10;51.90;;;;;;5112791;28;20069;-89
2022/07/29 11:03:04;;;;;;;;;;;25.10;52.20;;;;;;5111772;28;19903;-89
2022/07/29 11:05:31;;;;;;;;;;;25.20;52.10;;;;;;5113375;28;20173;-88
2022/07/29 11:08:12;;;;;;;;;;;25.20;51.90;;;;;;5113649;28;19910;-88
2022/07/29 11:10:37;;;;;;;;;;;25.20;51.90;;;;;;5112118;28;20149;-88
2022/07/29 11:13:03;;;;;;;;;;;25.20;51.70;;;;;;5111957;28;20343;-89
2022/07/29 11:15:30;;;;;;;;;;;25.20;51.70;;;;;;5112352;28;19925;-89
2022/07/29 11:18:00;;;;;;;;;;;25.20;51.70;;;;;;5111493;28;20021;-88
2022/07/29 11:20:31;;;;;;;;;;;25.20;51.70;;;;;;5131052;28;19903;-88
2022/07/29 11:22:57;;;;;;;;;;;25.20;52.10;;;;;;5113125;28;20326;-88
2022/07/29 11:25:23;;;;;;;;;;;25.20;52.20;;;;;;5131148;28;20272;-88
2022/07/29 11:27:48;;;;;;;;;;;25.20;52.10;;;;;;5113169;28;19972;-88
2022/07/29 11:30:14;;;;;;;;;;;25.20;52.20;;;;;;5113240;28;19903;-89
2022/07/29 11:32:41;;;;;;;;;;;25.10;52.10;;;;;;5112440;28;20288;-88
2022/07/29 11:35:22;;;;;;;;;;;25.10;52.10;;;;;;5111074;28;19980;-89
2022/07/29 11:38:07;;;;;;;;;;;25.10;52.30;;;;;;5110458;28;20203;-89
2022/07/29 11:40:33;;;;;;;;;;;25.10;52.50;;;;;;5111249;28;20252;-89
2022/07/29 11:42:59;;;;;;;;;;;25.10;52.20;;;;;;5112680;28;20040;-89
2022/07/29 11:45:28;;;;;;;;;;;25.10;52.10;;;;;;5112687;27;19907;-88
2022/07/29 11:47:57;;;;;;;;;;;25.20;52.20;;;;;;5115102;27;20057;-88
2022/07/29 11:50:28;;;;;;;;;;;25.10;52.00;;;;;;5134587;27;19903;-88
2022/07/29 11:52:53;;;;;;;;;;;25.20;52.20;;;;;;5114572;27;19977;-89
2022/07/29 11:55:22;;;;;;;;;;;25.20;52.10;;;;;;5116984;27;19946;-88
2022/07/29 11:57:55;;;;;;;;;;;25.20;52.10;;;;;;5115657;27;19903;-89
2022/07/29 12:00:25;;;;;;;;;;;25.30;52.10;;;;;;5116136;27;19907;-88
2022/07/29 12:02:51;;;;;;;;;;;25.30;52.10;;;;;;5116299;27;19963;-88
2022/07/29 12:05:17;;;;;;;;;;;25.40;51.90;;;;;;5117058;27;19907;-88
2022/07/29 12:07:43;;;;;;;;;;;25.50;51.70;;;;;;5133967;27;20166;-88
2022/07/29 12:10:08;;;;;;;;;;;25.60;51.50;;;;;;5116210;27;19932;-88
2022/07/29 12:12:35;;;;;;;;;;;25.70;51.50;;;;;;5115836;27;20314;-89
2022/07/29 12:15:13;;;;;;;;;;;25.70;51.40;;;;;;5113561;27;20144;-89
2022/07/29 12:17:40;;;;;;;;;;;25.80;51.30;;;;;;5114435;27;19903;-89
2022/07/29 12:20:07;;;;;;;;;;;25.80;51.60;;;;;;5114856;27;19921;-88
2022/07/29 12:22:34;;;;;;;;;;;25.80;51.40;;;;;;5115406;27;20241;-89
2022/07/29 12:25:05;;;;;;;;;;;25.80;51.20;;;;;;5114486;27;19908;-88
2022/07/29 12:27:31;;;;;;;;;;;25.80;51.30;;;;;;5114640;27;20062;-88
2022/07/29 12:30:00;;;;;;;;;;;25.80;51.30;;;;;;5116489;27;19907;-88
2022/07/29 12:32:36;;;;;;;;;;;25.70;51.50;;;;;;5116601;27;19997;-88
2022/07/29 12:35:03;;;;;;;;;;;25.70;51.40;;;;;;5116837;27;19903;-88
2022/07/29 12:37:29;;;;;;;;;;;25.70;51.40;;;;;;5115938;27;19910;-88
2022/07/29 12:39:55;;;;;;;;;;;25.70;51.50;;;;;;5116113;27;19903;-88
2022/07/29 12:42:20;;;;;;;;;;;25.70;51.60;;;;;;5115673;27;19903;-88
2022/07/29 12:44:50;;;;;;;;;;;25.70;51.30;;;;;;5114474;27;20162;-88
2022/07/29 12:47:16;;;;;;;;;;;25.80;51.30;;;;;;5114661;27;20064;-88
2022/07/29 12:49:42;;;;;;;;;;;25.90;51.30;;;;;;5115010;27;19903;-88
2022/07/29 12:52:23;;;;;;;;;;;25.90;51.00;;;;;;5114788;27;20020;-88
2022/07/29 12:54:49;;;;;;;;;;;26.00;50.90;;;;;;5114762;27;19914;-88
2022/07/29 12:57:15;;;;;;;;;;;26.10;50.90;;;;;;5114342;27;20180;-88
2022/07/29 12:59:41;;;;;;;;;;;26.10;50.80;;;;;;5115241;27;19963;-89
2022/07/29 13:02:06;;;;;;;;;;;26.20;50.70;;;;;;5114781;27;19903;-88
2022/07/29 13:04:33;;;;;;;;;;;26.20;50.70;;;;;;5115778;27;19915;-88
2022/07/29 13:07:07;;;;;;;;;;;26.20;50.80;;;;;;5115615;27;20253;-89
2022/07/29 13:09:37;;;;;;;;;;;26.30;50.70;;;;;;5116535;27;19904;-89
2022/07/29 13:12:07;;;;;;;;;;;26.30;50.80;;;;;;5113951;27;19907;-88
2022/07/29 13:14:34;;;;;;;;;;;26.30;50.70;;;;;;5132355;27;19910;-88
2022/07/29 13:17:06;;;;;;;;;;;26.30;50.60;;;;;;5115195;27;20007;-88
2022/07/29 13:19:40;;;;;;;;;;;26.30;50.60;;;;;;5114090;27;20022;-89
2022/07/29 13:22:06;;;;;;;;;;;26.40;50.70;;;;;;5114785;27;19926;-88
2022/07/29 13:24:32;;;;;;;;;;;26.40;50.50;;;;;;5113400;27;19911;-88
2022/07/29 13:26:58;;;;;;;;;;;26.40;50.50;;;;;;5113877;27;19917;-89
2022/07/29 13:29:26;;;;;;;;;;;26.40;50.40;;;;;;5115646;27;20006;-89
2022/07/29 13:31:51;;;;;;;;;;;26.40;50.50;;;;;;5114697;27;19967;-88
2022/07/29 13:34:19;;;;;;;;;;;26.40;50.50;;;;;;5131896;27;19911;-89
2022/07/29 13:36:45;;;;;;;;;;;26.50;50.50;;;;;;5113238;27;20141;-88
2022/07/29 13:39:11;;;;;;;;;;;26.50;50.50;;;;;;5114691;27;19937;-89
2022/07/29 13:41:36;;;;;;;;;;;26.50;50.60;;;;;;5113860;27;20218;-88
2022/07/29 13:44:02;;;;;;;;;;;26.50;50.50;;;;;;5111683;27;19926;-88
2022/07/29 13:46:28;;;;;;;;;;;26.50;50.50;;;;;;5112434;27;20036;-88
2022/07/29 13:48:54;;;;;;;;;;;26.50;50.50;;;;;;5113804;27;19991;-88
2022/07/29 13:51:19;;;;;;;;;;;26.50;50.50;;;;;;5113075;27;19918;-89
2022/07/29 13:53:45;;;;;;;;;;;26.50;50.50;;;;;;5114363;27;19903;-89
2022/07/29 13:56:10;;;;;;;;;;;26.50;50.50;;;;;;5132413;27;19907;-88
2022/07/29 13:58:36;;;;;;;;;;;26.60;50.50;;;;;;5113713;27;19954;-88
2022/07/29 14:01:02;;;;;;;;;;;26.50;50.50;;;;;;5111387;27;20245;-88
2022/07/29 14:03:28;;;;;;;;;;;26.60;50.60;;;;;;5130167;27;20226;-88
2022/07/29 14:05:54;;;;;;;;;;;26.60;50.50;;;;;;5113891;27;19907;-89
2022/07/29 14:08:19;;;;;;;;;;;26.60;50.50;;;;;;5112816;27;19911;-88
2022/07/29 14:10:45;;;;;;;;;;;26.60;50.80;;;;;;5113292;27;20002;-88
2022/07/29 14:13:10;;;;;;;;;;;26.60;50.50;;;;;;5114065;27;20017;-88